Terminal Aerodrome Forecast
Issued by NWS Charleston, WV

Home | Current Version | Previous Version | Text Only | Print | Product List | Glossary On
Versions: 1 2 3 4 5 6 7 8 9 10 11 12 13 14 15 16 17 18 19 20 21
000
FTUS41 KRLX 121700
TAFPKB
TAF
KPKB 121730Z 1218/1318 18006KT P6SM BKN050 BKN070
     FM122200 23005KT P6SM BKN045
     FM130900 22004KT P6SM BKN120
     FM131700 23010KT P6SM VCTS BKN035CB=

USA.gov is the U.S. government's official web portal to all federal, state and local government web resources and services.